createdAt,value
2023-03-22T00:03:13.880Z,9.65
2023-03-22T00:08:16.790Z,8.68
2023-03-22T00:13:19.868Z,8.06
2023-03-22T00:18:22.842Z,7.55
2023-03-22T00:23:26.921Z,7.11
2023-03-22T00:28:29.874Z,6.73
2023-03-22T00:33:33.662Z,6.43
2023-03-22T00:38:44.077Z,6.16
2023-03-22T00:43:48.880Z,6.59
2023-03-22T00:48:52.010Z,9.49
2023-03-22T00:53:54.991Z,10.26
2023-03-22T00:58:57.916Z,8.61
2023-03-22T01:04:00.914Z,7.66
2023-03-22T01:09:05.075Z,7.06
2023-03-22T01:14:09.900Z,6.67
2023-03-22T01:19:12.822Z,6.29
2023-03-22T01:24:16.802Z,6.01
2023-03-22T01:29:19.791Z,5.77
2023-03-22T01:34:23.122Z,5.57
2023-03-22T01:39:27.361Z,5.40
2023-03-22T01:44:31.670Z,6.19
2023-03-22T01:49:35.833Z,9.24
2023-03-22T01:54:43.620Z,10.33
2023-03-22T01:59:48.051Z,8.75
2023-03-22T02:04:51.077Z,7.69
2023-03-22T02:09:54.565Z,7.06
2023-03-22T02:15:09.511Z,6.60
2023-03-22T02:20:47.880Z,6.20
2023-03-22T02:26:39.379Z,5.79
2023-03-22T02:31:47.319Z,5.47
2023-03-22T02:37:23.567Z,5.28
2023-03-22T02:42:49.095Z,5.12
2023-03-22T02:47:58.833Z,5.00
2023-03-22T02:53:19.511Z,6.02
2023-03-22T02:58:50.436Z,9.28
2023-03-22T03:04:00.066Z,9.95
2023-03-22T03:09:05.160Z,8.30
2023-03-22T03:14:20.956Z,7.32
2023-03-22T03:19:35.417Z,6.60
2023-03-22T03:25:09.465Z,6.03
2023-03-22T03:30:19.823Z,5.47
2023-03-22T03:35:29.839Z,5.10
2023-03-22T03:40:37.734Z,6.02
2023-03-22T03:45:44.513Z,9.06
2023-03-22T03:50:51.029Z,10.66
2023-03-22T03:55:54.214Z,10.35
2023-03-22T04:00:57.236Z,8.52
2023-03-22T04:06:00.253Z,7.44
2023-03-22T04:11:03.207Z,6.71
2023-03-22T04:16:07.245Z,6.18
2023-03-22T04:21:12.260Z,5.78
2023-03-22T04:26:15.404Z,5.39
2023-03-22T04:31:18.587Z,5.07
2023-03-22T04:36:23.834Z,4.85
2023-03-22T04:41:26.746Z,4.66
2023-03-22T04:46:35.993Z,5.61
2023-03-22T04:51:38.981Z,8.74
2023-03-22T04:56:42.016Z,10.38
2023-03-22T05:01:44.979Z,9.25
2023-03-22T05:06:48.486Z,7.82
2023-03-22T05:11:51.446Z,7.01
2023-03-22T05:16:54.455Z,6.46
2023-03-22T05:21:58.407Z,6.09
2023-03-22T05:27:01.560Z,5.74
2023-03-22T05:32:04.654Z,6.58
2023-03-22T05:37:07.625Z,9.74
2023-03-22T05:42:10.709Z,10.41
2023-03-22T05:47:13.747Z,8.81
2023-03-22T05:52:16.799Z,7.93
2023-03-22T05:57:19.751Z,7.44
2023-03-22T06:02:23.072Z,7.06
2023-03-22T06:07:26.621Z,7.68
2023-03-22T06:12:30.269Z,10.71
2023-03-22T06:17:33.260Z,12.50
2023-03-22T06:22:36.309Z,13.01
2023-03-22T06:27:39.241Z,11.30
2023-03-22T06:32:42.198Z,10.10
2023-03-22T06:37:45.139Z,9.43
2023-03-22T06:42:48.641Z,8.94
2023-03-22T06:47:51.647Z,9.69
2023-03-22T06:52:55.120Z,12.40
2023-03-22T06:57:58.072Z,13.48
2023-03-22T07:03:01.457Z,11.91
2023-03-22T07:08:04.455Z,10.66
2023-03-22T07:13:07.393Z,10.98
2023-03-22T07:18:10.684Z,13.36
2023-03-22T07:23:13.785Z,13.93
2023-03-22T07:28:16.854Z,12.23
2023-03-22T07:33:19.837Z,11.12
2023-03-22T07:38:22.820Z,11.13
2023-03-22T07:43:25.790Z,13.61
2023-03-22T07:48:31.242Z,14.95
2023-03-22T07:53:34.922Z,13.72
2023-03-22T07:58:37.855Z,12.22
2023-03-22T08:03:40.865Z,11.61
2023-03-22T08:08:43.805Z,13.71
2023-03-22T08:13:46.785Z,14.48
2023-03-22T08:18:49.758Z,12.81
2023-03-22T08:23:53.013Z,11.79
2023-03-22T08:28:57.104Z,11.29
2023-03-22T08:34:00.141Z,13.06
2023-03-22T08:39:04.056Z,14.81
2023-03-22T08:44:07.220Z,13.66
2023-03-22T08:49:10.653Z,12.47
2023-03-22T08:54:13.814Z,13.40
2023-03-22T08:59:16.772Z,14.69
2023-03-22T09:04:19.778Z,13.39
2023-03-22T09:09:22.782Z,12.46
2023-03-22T09:14:25.961Z,13.49
2023-03-22T09:19:29.007Z,15.45
2023-03-22T09:24:31.932Z,14.32
2023-03-22T09:29:35.008Z,13.16
2023-03-22T09:34:37.929Z,12.47
2023-03-22T09:39:41.901Z,13.44
2023-03-22T09:44:46.713Z,14.68
2023-03-22T09:50:00.830Z,13.45
2023-03-22T09:55:14.156Z,12.70
2023-03-22T10:00:40.579Z,12.31
2023-03-22T10:05:51.466Z,12.04
2023-03-22T10:10:54.610Z,13.02
2023-03-22T10:16:02.961Z,14.84
2023-03-22T10:21:12.609Z,13.85
2023-03-22T10:26:29.506Z,13.07
2023-03-22T10:31:34.202Z,12.61
2023-03-22T10:36:40.248Z,12.27
2023-03-22T10:41:45.476Z,12.05
2023-03-22T10:46:49.743Z,11.97
2023-03-22T10:51:58.297Z,12.83
2023-03-22T10:57:01.245Z,14.96
2023-03-22T11:02:04.511Z,14.11
2023-03-22T11:07:26.094Z,13.46
2023-03-22T11:12:29.407Z,13.09
2023-03-22T11:17:33.257Z,12.87
2023-03-22T11:22:48.207Z,12.72
2023-03-22T11:28:05.982Z,12.68
2023-03-22T11:33:08.948Z,12.61
2023-03-22T11:38:41.966Z,12.59
2023-03-22T11:43:48.581Z,12.60
2023-03-22T11:49:01.577Z,12.59
2023-03-22T11:54:36.492Z,12.57
2023-03-22T11:59:48.234Z,12.58
2023-03-22T12:05:01.895Z,12.55
2023-03-22T12:10:41.082Z,12.50
2023-03-22T12:15:51.807Z,12.41
2023-03-22T12:20:58.287Z,12.35
2023-03-22T12:26:11.657Z,12.30
2023-03-22T12:31:44.547Z,12.27
2023-03-22T12:36:56.233Z,12.24
2023-03-22T12:42:10.962Z,12.25
2023-03-22T12:47:20.385Z,12.25
2023-03-22T12:52:34.858Z,12.33
2023-03-22T12:57:44.813Z,12.46
2023-03-22T13:02:59.355Z,12.53
2023-03-22T13:08:05.541Z,12.55
2023-03-22T13:13:24.298Z,12.59
2023-03-22T13:18:36.422Z,12.64
2023-03-22T13:24:10.375Z,12.71
2023-03-22T13:29:20.968Z,12.78
2023-03-22T13:34:49.243Z,12.82
2023-03-22T13:39:52.420Z,12.86
2023-03-22T13:45:00.139Z,12.95
2023-03-22T13:50:28.491Z,13.03
2023-03-22T13:55:46.499Z,13.12
2023-03-22T14:00:55.415Z,13.19
2023-03-22T14:06:23.823Z,13.23
2023-03-22T14:11:38.142Z,13.29
2023-03-22T14:16:50.809Z,13.35
